sensor_id;sensor_type;location;lat;lon;timestamp;P1;durP1;ratioP1;P2;durP2;ratioP2
69087;SDS011;56190;43.562;5.036;2022-08-05T00:00:00;7.28;;;6.57;;
69087;SDS011;56190;43.562;5.036;2022-08-05T00:02:25;7.30;;;6.45;;
69087;SDS011;56190;43.562;5.036;2022-08-05T00:04:50;7.22;;;5.97;;
69087;SDS011;56190;43.562;5.036;2022-08-05T00:07:16;6.97;;;6.38;;
69087;SDS011;56190;43.562;5.036;2022-08-05T00:09:41;6.60;;;5.88;;
69087;SDS011;56190;43.562;5.036;2022-08-05T00:12:06;7.18;;;6.22;;
69087;SDS011;56190;43.562;5.036;2022-08-05T00:14:32;6.32;;;5.72;;
69087;SDS011;56190;43.562;5.036;2022-08-05T00:16:57;7.10;;;5.88;;
69087;SDS011;56190;43.562;5.036;2022-08-05T00:19:23;6.68;;;6.03;;
69087;SDS011;56190;43.562;5.036;2022-08-05T00:21:49;6.95;;;6.00;;
69087;SDS011;56190;43.562;5.036;2022-08-05T00:24:14;6.70;;;5.70;;
69087;SDS011;56190;43.562;5.036;2022-08-05T00:26:39;6.85;;;5.38;;
69087;SDS011;56190;43.562;5.036;2022-08-05T00:29:05;8.30;;;5.60;;
69087;SDS011;56190;43.562;5.036;2022-08-05T00:31:30;6.25;;;5.63;;
69087;SDS011;56190;43.562;5.036;2022-08-05T00:33:55;5.85;;;5.25;;
69087;SDS011;56190;43.562;5.036;2022-08-05T00:36:20;5.82;;;5.30;;
69087;SDS011;56190;43.562;5.036;2022-08-05T00:38:48;8.10;;;5.65;;
69087;SDS011;56190;43.562;5.036;2022-08-05T00:41:13;8.82;;;6.00;;
69087;SDS011;56190;43.562;5.036;2022-08-05T00:43:38;6.50;;;5.55;;
69087;SDS011;56190;43.562;5.036;2022-08-05T00:46:03;5.47;;;4.97;;
69087;SDS011;56190;43.562;5.036;2022-08-05T00:48:29;5.70;;;5.10;;
69087;SDS011;56190;43.562;5.036;2022-08-05T00:50:54;6.18;;;4.88;;
69087;SDS011;56190;43.562;5.036;2022-08-05T00:53:20;6.25;;;5.65;;
69087;SDS011;56190;43.562;5.036;2022-08-05T00:55:46;6.85;;;5.13;;
69087;SDS011;56190;43.562;5.036;2022-08-05T00:58:12;6.45;;;5.65;;
69087;SDS011;56190;43.562;5.036;2022-08-05T01:00:38;5.25;;;4.75;;
69087;SDS011;56190;43.562;5.036;2022-08-05T01:03:04;6.38;;;5.55;;
69087;SDS011;56190;43.562;5.036;2022-08-05T01:05:29;6.72;;;5.40;;
69087;SDS011;56190;43.562;5.036;2022-08-05T01:07:55;6.68;;;5.93;;
69087;SDS011;56190;43.562;5.036;2022-08-05T01:10:21;6.30;;;5.70;;
69087;SDS011;56190;43.562;5.036;2022-08-05T01:12:51;6.75;;;6.13;;
69087;SDS011;56190;43.562;5.036;2022-08-05T01:15:20;6.97;;;6.32;;
69087;SDS011;56190;43.562;5.036;2022-08-05T01:17:47;8.07;;;6.03;;
69087;SDS011;56190;43.562;5.036;2022-08-05T01:20:30;6.53;;;5.93;;
69087;SDS011;56190;43.562;5.036;2022-08-05T01:23:10;7.78;;;6.30;;
69087;SDS011;56190;43.562;5.036;2022-08-05T01:25:42;8.25;;;6.82;;
69087;SDS011;56190;43.562;5.036;2022-08-05T01:28:21;8.38;;;6.60;;
69087;SDS011;56190;43.562;5.036;2022-08-05T01:31:01;7.90;;;6.70;;
69087;SDS011;56190;43.562;5.036;2022-08-05T01:33:32;9.40;;;6.82;;
69087;SDS011;56190;43.562;5.036;2022-08-05T01:35:58;7.43;;;6.72;;
69087;SDS011;56190;43.562;5.036;2022-08-05T01:38:25;7.40;;;6.70;;
69087;SDS011;56190;43.562;5.036;2022-08-05T01:40:51;7.95;;;7.15;;
69087;SDS011;56190;43.562;5.036;2022-08-05T01:43:17;8.02;;;7.22;;
69087;SDS011;56190;43.562;5.036;2022-08-05T01:45:42;8.77;;;7.10;;
69087;SDS011;56190;43.562;5.036;2022-08-05T01:48:08;8.70;;;7.00;;
69087;SDS011;56190;43.562;5.036;2022-08-05T01:50:37;8.90;;;7.00;;
69087;SDS011;56190;43.562;5.036;2022-08-05T01:53:05;8.23;;;7.32;;
69087;SDS011;56190;43.562;5.036;2022-08-05T01:55:32;9.50;;;8.10;;
69087;SDS011;56190;43.562;5.036;2022-08-05T01:57:57;9.43;;;8.40;;
69087;SDS011;56190;43.562;5.036;2022-08-05T02:00:24;9.95;;;7.55;;
69087;SDS011;56190;43.562;5.036;2022-08-05T02:02:54;9.73;;;8.50;;
69087;SDS011;56190;43.562;5.036;2022-08-05T02:05:20;9.23;;;7.97;;
69087;SDS011;56190;43.562;5.036;2022-08-05T02:07:46;9.35;;;8.43;;
69087;SDS011;56190;43.562;5.036;2022-08-05T02:10:12;7.68;;;6.95;;
69087;SDS011;56190;43.562;5.036;2022-08-05T02:15:16;8.57;;;7.68;;
69087;SDS011;56190;43.562;5.036;2022-08-05T02:18:19;9.68;;;7.53;;
69087;SDS011;56190;43.562;5.036;2022-08-05T02:20:53;9.10;;;8.05;;
69087;SDS011;56190;43.562;5.036;2022-08-05T02:23:21;11.98;;;8.10;;
69087;SDS011;56190;43.562;5.036;2022-08-05T02:25:47;8.35;;;7.55;;
69087;SDS011;56190;43.562;5.036;2022-08-05T02:28:13;9.40;;;7.50;;
69087;SDS011;56190;43.562;5.036;2022-08-05T02:30:49;12.10;;;7.88;;
69087;SDS011;56190;43.562;5.036;2022-08-05T02:33:17;9.02;;;7.50;;
69087;SDS011;56190;43.562;5.036;2022-08-05T02:35:44;8.88;;;7.82;;
69087;SDS011;56190;43.562;5.036;2022-08-05T02:38:10;10.77;;;8.10;;
69087;SDS011;56190;43.562;5.036;2022-08-05T02:40:37;8.60;;;7.70;;
69087;SDS011;56190;43.562;5.036;2022-08-05T02:43:04;9.13;;;7.57;;
69087;SDS011;56190;43.562;5.036;2022-08-05T02:45:30;8.77;;;7.88;;
69087;SDS011;56190;43.562;5.036;2022-08-05T02:47:57;8.90;;;8.00;;
69087;SDS011;56190;43.562;5.036;2022-08-05T02:50:23;8.48;;;7.28;;
69087;SDS011;56190;43.562;5.036;2022-08-05T02:52:49;9.23;;;8.02;;
69087;SDS011;56190;43.562;5.036;2022-08-05T02:55:15;9.88;;;7.85;;
69087;SDS011;56190;43.562;5.036;2022-08-05T02:57:41;8.85;;;8.05;;
69087;SDS011;56190;43.562;5.036;2022-08-05T03:00:06;11.15;;;8.02;;
69087;SDS011;56190;43.562;5.036;2022-08-05T03:02:41;10.35;;;7.65;;
69087;SDS011;56190;43.562;5.036;2022-08-05T03:05:08;8.85;;;7.95;;
69087;SDS011;56190;43.562;5.036;2022-08-05T03:07:35;8.38;;;7.20;;
69087;SDS011;56190;43.562;5.036;2022-08-05T03:10:01;9.35;;;7.60;;
69087;SDS011;56190;43.562;5.036;2022-08-05T03:12:30;8.50;;;7.35;;
69087;SDS011;56190;43.562;5.036;2022-08-05T03:14:55;9.70;;;8.70;;
69087;SDS011;56190;43.562;5.036;2022-08-05T03:17:21;9.70;;;8.15;;
69087;SDS011;56190;43.562;5.036;2022-08-05T03:19:46;8.40;;;7.60;;
69087;SDS011;56190;43.562;5.036;2022-08-05T03:22:11;9.80;;;8.10;;
69087;SDS011;56190;43.562;5.036;2022-08-05T03:24:37;9.30;;;8.32;;
69087;SDS011;56190;43.562;5.036;2022-08-05T03:27:02;10.27;;;8.45;;
69087;SDS011;56190;43.562;5.036;2022-08-05T03:29:27;9.10;;;7.65;;
69087;SDS011;56190;43.562;5.036;2022-08-05T03:31:53;9.82;;;7.50;;
69087;SDS011;56190;43.562;5.036;2022-08-05T03:34:19;9.57;;;7.05;;
69087;SDS011;56190;43.562;5.036;2022-08-05T03:36:44;10.80;;;7.53;;
69087;SDS011;56190;43.562;5.036;2022-08-05T03:39:10;8.63;;;7.13;;
69087;SDS011;56190;43.562;5.036;2022-08-05T03:41:35;10.25;;;7.20;;
69087;SDS011;56190;43.562;5.036;2022-08-05T03:44:00;7.47;;;6.50;;
69087;SDS011;56190;43.562;5.036;2022-08-05T03:46:25;11.35;;;7.70;;
69087;SDS011;56190;43.562;5.036;2022-08-05T03:48:51;8.10;;;7.30;;
69087;SDS011;56190;43.562;5.036;2022-08-05T03:51:19;7.43;;;6.60;;
69087;SDS011;56190;43.562;5.036;2022-08-05T03:53:59;6.78;;;6.18;;
69087;SDS011;56190;43.562;5.036;2022-08-05T03:56:35;8.65;;;6.85;;
69087;SDS011;56190;43.562;5.036;2022-08-05T03:59:03;6.15;;;5.55;;
69087;SDS011;56190;43.562;5.036;2022-08-05T04:01:30;6.30;;;5.75;;
69087;SDS011;56190;43.562;5.036;2022-08-05T04:03:57;6.88;;;6.22;;
69087;SDS011;56190;43.562;5.036;2022-08-05T04:06:22;6.22;;;5.60;;
69087;SDS011;56190;43.562;5.036;2022-08-05T04:08:48;7.03;;;5.75;;
69087;SDS011;56190;43.562;5.036;2022-08-05T04:11:13;6.78;;;5.60;;
69087;SDS011;56190;43.562;5.036;2022-08-05T04:13:40;6.60;;;6.00;;
69087;SDS011;56190;43.562;5.036;2022-08-05T04:16:06;6.93;;;6.10;;
69087;SDS011;56190;43.562;5.036;2022-08-05T04:18:32;6.53;;;5.93;;
69087;SDS011;56190;43.562;5.036;2022-08-05T04:20:57;6.65;;;5.82;;
69087;SDS011;56190;43.562;5.036;2022-08-05T04:23:24;9.13;;;6.47;;
69087;SDS011;56190;43.562;5.036;2022-08-05T04:25:49;9.02;;;6.82;;
69087;SDS011;56190;43.562;5.036;2022-08-05T04:28:15;7.85;;;6.35;;
69087;SDS011;56190;43.562;5.036;2022-08-05T04:30:40;7.85;;;6.95;;
69087;SDS011;56190;43.562;5.036;2022-08-05T04:33:05;7.40;;;6.78;;
69087;SDS011;56190;43.562;5.036;2022-08-05T04:35:31;7.25;;;6.55;;
69087;SDS011;56190;43.562;5.036;2022-08-05T04:37:56;7.13;;;6.32;;
69087;SDS011;56190;43.562;5.036;2022-08-05T04:40:21;10.57;;;6.97;;
69087;SDS011;56190;43.562;5.036;2022-08-05T04:42:46;7.07;;;6.38;;
69087;SDS011;56190;43.562;5.036;2022-08-05T04:45:12;6.57;;;5.88;;
69087;SDS011;56190;43.562;5.036;2022-08-05T04:47:37;7.63;;;6.38;;
69087;SDS011;56190;43.562;5.036;2022-08-05T04:50:02;7.95;;;5.72;;
69087;SDS011;56190;43.562;5.036;2022-08-05T04:52:28;7.72;;;5.55;;
69087;SDS011;56190;43.562;5.036;2022-08-05T04:54:53;9.05;;;5.55;;
69087;SDS011;56190;43.562;5.036;2022-08-05T04:57:19;6.97;;;5.65;;
69087;SDS011;56190;43.562;5.036;2022-08-05T04:59:44;6.22;;;5.63;;
69087;SDS011;56190;43.562;5.036;2022-08-05T05:02:09;7.40;;;5.05;;
69087;SDS011;56190;43.562;5.036;2022-08-05T05:04:34;6.70;;;5.13;;
69087;SDS011;56190;43.562;5.036;2022-08-05T05:07:00;7.20;;;5.15;;
69087;SDS011;56190;43.562;5.036;2022-08-05T05:09:25;9.38;;;5.55;;
69087;SDS011;56190;43.562;5.036;2022-08-05T05:11:50;6.07;;;5.47;;
69087;SDS011;56190;43.562;5.036;2022-08-05T05:14:15;5.75;;;5.20;;
69087;SDS011;56190;43.562;5.036;2022-08-05T05:16:41;6.43;;;5.85;;
69087;SDS011;56190;43.562;5.036;2022-08-05T05:19:06;6.32;;;5.68;;
69087;SDS011;56190;43.562;5.036;2022-08-05T05:21:31;6.60;;;5.93;;
69087;SDS011;56190;43.562;5.036;2022-08-05T05:23:56;6.40;;;5.50;;
69087;SDS011;56190;43.562;5.036;2022-08-05T05:26:22;8.38;;;6.20;;
69087;SDS011;56190;43.562;5.036;2022-08-05T05:28:47;6.85;;;6.15;;
69087;SDS011;56190;43.562;5.036;2022-08-05T05:31:12;7.22;;;5.72;;
69087;SDS011;56190;43.562;5.036;2022-08-05T05:33:37;8.63;;;5.90;;
69087;SDS011;56190;43.562;5.036;2022-08-05T05:36:03;8.23;;;5.57;;
69087;SDS011;56190;43.562;5.036;2022-08-05T05:38:28;7.68;;;5.82;;
69087;SDS011;56190;43.562;5.036;2022-08-05T05:40:54;6.47;;;5.88;;
69087;SDS011;56190;43.562;5.036;2022-08-05T05:43:19;6.85;;;5.55;;
69087;SDS011;56190;43.562;5.036;2022-08-05T05:45:46;5.95;;;5.35;;
69087;SDS011;56190;43.562;5.036;2022-08-05T05:48:12;5.68;;;5.07;;
69087;SDS011;56190;43.562;5.036;2022-08-05T05:50:37;7.05;;;5.60;;
69087;SDS011;56190;43.562;5.036;2022-08-05T05:53:04;9.32;;;5.40;;
69087;SDS011;56190;43.562;5.036;2022-08-05T05:55:30;8.23;;;5.78;;
69087;SDS011;56190;43.562;5.036;2022-08-05T05:57:55;7.15;;;5.60;;
69087;SDS011;56190;43.562;5.036;2022-08-05T06:00:20;7.75;;;5.20;;
69087;SDS011;56190;43.562;5.036;2022-08-05T06:02:46;6.82;;;5.00;;
69087;SDS011;56190;43.562;5.036;2022-08-05T06:05:12;5.45;;;4.88;;
69087;SDS011;56190;43.562;5.036;2022-08-05T06:07:38;5.25;;;4.85;;
69087;SDS011;56190;43.562;5.036;2022-08-05T06:10:04;7.07;;;4.75;;
69087;SDS011;56190;43.562;5.036;2022-08-05T06:12:30;5.90;;;5.07;;
69087;SDS011;56190;43.562;5.036;2022-08-05T06:14:55;5.32;;;4.70;;
69087;SDS011;56190;43.562;5.036;2022-08-05T06:17:21;6.95;;;4.57;;
69087;SDS011;56190;43.562;5.036;2022-08-05T06:19:46;5.20;;;4.78;;
69087;SDS011;56190;43.562;5.036;2022-08-05T06:22:11;5.10;;;4.50;;
69087;SDS011;56190;43.562;5.036;2022-08-05T06:24:40;5.28;;;4.25;;
69087;SDS011;56190;43.562;5.036;2022-08-05T06:27:05;6.40;;;4.88;;
69087;SDS011;56190;43.562;5.036;2022-08-05T06:29:30;4.82;;;4.10;;
69087;SDS011;56190;43.562;5.036;2022-08-05T06:31:56;4.97;;;4.47;;
69087;SDS011;56190;43.562;5.036;2022-08-05T06:34:21;5.57;;;4.97;;
69087;SDS011;56190;43.562;5.036;2022-08-05T06:36:46;7.88;;;5.55;;
69087;SDS011;56190;43.562;5.036;2022-08-05T06:39:11;5.30;;;4.90;;
69087;SDS011;56190;43.562;5.036;2022-08-05T06:41:37;6.75;;;5.07;;
69087;SDS011;56190;43.562;5.036;2022-08-05T06:44:02;8.95;;;5.20;;
69087;SDS011;56190;43.562;5.036;2022-08-05T06:46:27;5.57;;;4.55;;
69087;SDS011;56190;43.562;5.036;2022-08-05T06:48:53;6.82;;;4.70;;
69087;SDS011;56190;43.562;5.036;2022-08-05T06:51:18;6.65;;;4.43;;
69087;SDS011;56190;43.562;5.036;2022-08-05T06:53:43;6.65;;;4.30;;
69087;SDS011;56190;43.562;5.036;2022-08-05T06:56:08;4.97;;;4.13;;
69087;SDS011;56190;43.562;5.036;2022-08-05T06:58:34;6.80;;;4.63;;
69087;SDS011;56190;43.562;5.036;2022-08-05T07:00:59;6.63;;;4.90;;
69087;SDS011;56190;43.562;5.036;2022-08-05T07:03:25;6.63;;;4.97;;
69087;SDS011;56190;43.562;5.036;2022-08-05T07:05:51;5.93;;;4.72;;
69087;SDS011;56190;43.562;5.036;2022-08-05T07:08:16;4.85;;;4.20;;
69087;SDS011;56190;43.562;5.036;2022-08-05T07:10:41;7.47;;;4.88;;
69087;SDS011;56190;43.562;5.036;2022-08-05T07:13:06;6.63;;;5.00;;
69087;SDS011;56190;43.562;5.036;2022-08-05T07:15:50;5.20;;;4.70;;
69087;SDS011;56190;43.562;5.036;2022-08-05T07:18:34;7.60;;;4.90;;
69087;SDS011;56190;43.562;5.036;2022-08-05T07:20:59;5.63;;;4.65;;
69087;SDS011;56190;43.562;5.036;2022-08-05T07:23:24;6.78;;;4.05;;
69087;SDS011;56190;43.562;5.036;2022-08-05T07:25:50;6.13;;;4.55;;
69087;SDS011;56190;43.562;5.036;2022-08-05T07:28:15;5.97;;;3.90;;
69087;SDS011;56190;43.562;5.036;2022-08-05T07:30:40;7.18;;;4.22;;
69087;SDS011;56190;43.562;5.036;2022-08-05T07:33:07;6.10;;;3.95;;
69087;SDS011;56190;43.562;5.036;2022-08-05T07:35:33;4.45;;;4.05;;
69087;SDS011;56190;43.562;5.036;2022-08-05T07:37:58;5.47;;;4.30;;
69087;SDS011;56190;43.562;5.036;2022-08-05T07:40:23;5.10;;;3.85;;
69087;SDS011;56190;43.562;5.036;2022-08-05T07:42:49;5.07;;;3.90;;
69087;SDS011;56190;43.562;5.036;2022-08-05T07:45:14;9.63;;;4.32;;
69087;SDS011;56190;43.562;5.036;2022-08-05T07:47:40;5.13;;;3.72;;
69087;SDS011;56190;43.562;5.036;2022-08-05T07:50:05;5.13;;;3.65;;
69087;SDS011;56190;43.562;5.036;2022-08-05T07:52:31;5.63;;;3.92;;
69087;SDS011;56190;43.562;5.036;2022-08-05T07:54:56;6.40;;;4.03;;
69087;SDS011;56190;43.562;5.036;2022-08-05T07:57:21;6.20;;;4.10;;
69087;SDS011;56190;43.562;5.036;2022-08-05T07:59:47;7.20;;;3.70;;
69087;SDS011;56190;43.562;5.036;2022-08-05T08:02:12;4.28;;;3.63;;
69087;SDS011;56190;43.562;5.036;2022-08-05T08:04:37;4.80;;;3.50;;
69087;SDS011;56190;43.562;5.036;2022-08-05T08:07:03;5.20;;;3.83;;
69087;SDS011;56190;43.562;5.036;2022-08-05T08:09:28;8.50;;;3.90;;
69087;SDS011;56190;43.562;5.036;2022-08-05T08:11:53;7.60;;;3.88;;
69087;SDS011;56190;43.562;5.036;2022-08-05T08:14:18;7.65;;;4.10;;
69087;SDS011;56190;43.562;5.036;2022-08-05T08:16:44;7.22;;;4.13;;
69087;SDS011;56190;43.562;5.036;2022-08-05T08:19:09;8.50;;;3.83;;
69087;SDS011;56190;43.562;5.036;2022-08-05T08:21:34;6.25;;;3.95;;
69087;SDS011;56190;43.562;5.036;2022-08-05T08:24:00;5.97;;;3.67;;
69087;SDS011;56190;43.562;5.036;2022-08-05T08:26:25;8.13;;;3.50;;
69087;SDS011;56190;43.562;5.036;2022-08-05T08:28:50;6.00;;;3.47;;
69087;SDS011;56190;43.562;5.036;2022-08-05T08:31:16;5.47;;;3.50;;
69087;SDS011;56190;43.562;5.036;2022-08-05T08:33:42;5.18;;;3.60;;
69087;SDS011;56190;43.562;5.036;2022-08-05T08:36:07;7.53;;;3.83;;
69087;SDS011;56190;43.562;5.036;2022-08-05T08:38:33;5.82;;;3.70;;
69087;SDS011;56190;43.562;5.036;2022-08-05T08:40:58;6.18;;;3.33;;
69087;SDS011;56190;43.562;5.036;2022-08-05T08:43:24;5.50;;;3.50;;
69087;SDS011;56190;43.562;5.036;2022-08-05T08:45:49;5.53;;;3.88;;
69087;SDS011;56190;43.562;5.036;2022-08-05T08:48:16;8.60;;;3.80;;
69087;SDS011;56190;43.562;5.036;2022-08-05T08:50:43;4.30;;;3.45;;
69087;SDS011;56190;43.562;5.036;2022-08-05T08:53:09;8.48;;;3.45;;
69087;SDS011;56190;43.562;5.036;2022-08-05T08:55:36;4.38;;;3.25;;
69087;SDS011;56190;43.562;5.036;2022-08-05T08:58:02;5.95;;;3.42;;
69087;SDS011;56190;43.562;5.036;2022-08-05T09:00:27;4.90;;;3.45;;
69087;SDS011;56190;43.562;5.036;2022-08-05T09:02:54;5.85;;;3.55;;
69087;SDS011;56190;43.562;5.036;2022-08-05T09:05:20;4.18;;;3.10;;
69087;SDS011;56190;43.562;5.036;2022-08-05T09:07:45;5.20;;;3.65;;
69087;SDS011;56190;43.562;5.036;2022-08-05T09:10:11;6.13;;;3.78;;
69087;SDS011;56190;43.562;5.036;2022-08-05T09:12:37;6.97;;;3.72;;
69087;SDS011;56190;43.562;5.036;2022-08-05T09:15:03;4.63;;;3.17;;
69087;SDS011;56190;43.562;5.036;2022-08-05T09:17:29;5.47;;;3.33;;
69087;SDS011;56190;43.562;5.036;2022-08-05T09:19:55;5.85;;;3.20;;
69087;SDS011;56190;43.562;5.036;2022-08-05T09:22:20;6.68;;;3.58;;
69087;SDS011;56190;43.562;5.036;2022-08-05T09:25:01;4.75;;;3.45;;
69087;SDS011;56190;43.562;5.036;2022-08-05T09:27:33;5.88;;;3.25;;
69087;SDS011;56190;43.562;5.036;2022-08-05T09:29:59;4.05;;;2.85;;
69087;SDS011;56190;43.562;5.036;2022-08-05T09:32:34;4.78;;;2.83;;
69087;SDS011;56190;43.562;5.036;2022-08-05T09:35:03;4.65;;;3.25;;
69087;SDS011;56190;43.562;5.036;2022-08-05T09:37:33;4.90;;;3.60;;
69087;SDS011;56190;43.562;5.036;2022-08-05T09:39:58;4.68;;;3.60;;
69087;SDS011;56190;43.562;5.036;2022-08-05T09:42:23;6.47;;;3.88;;
69087;SDS011;56190;43.562;5.036;2022-08-05T09:44:50;4.55;;;3.55;;
69087;SDS011;56190;43.562;5.036;2022-08-05T09:47:20;5.57;;;4.07;;
69087;SDS011;56190;43.562;5.036;2022-08-05T09:49:47;8.13;;;3.97;;
69087;SDS011;56190;43.562;5.036;2022-08-05T09:54:50;6.88;;;3.70;;
69087;SDS011;56190;43.562;5.036;2022-08-05T09:57:27;5.72;;;3.20;;
69087;SDS011;56190;43.562;5.036;2022-08-05T09:59:55;7.05;;;3.38;;
69087;SDS011;56190;43.562;5.036;2022-08-05T10:02:34;4.28;;;3.03;;
69087;SDS011;56190;43.562;5.036;2022-08-05T10:05:03;4.50;;;2.85;;
69087;SDS011;56190;43.562;5.036;2022-08-05T10:07:41;6.43;;;3.10;;
69087;SDS011;56190;43.562;5.036;2022-08-05T10:10:07;5.80;;;3.00;;
69087;SDS011;56190;43.562;5.036;2022-08-05T10:12:38;3.47;;;3.20;;
69087;SDS011;56190;43.562;5.036;2022-08-05T10:17:29;4.85;;;3.20;;
69087;SDS011;56190;43.562;5.036;2022-08-05T10:19:54;4.22;;;3.53;;
69087;SDS011;56190;43.562;5.036;2022-08-05T10:22:19;4.35;;;3.30;;
69087;SDS011;56190;43.562;5.036;2022-08-05T10:24:45;4.97;;;3.20;;
69087;SDS011;56190;43.562;5.036;2022-08-05T10:27:10;5.35;;;3.60;;
69087;SDS011;56190;43.562;5.036;2022-08-05T10:29:37;4.30;;;3.65;;
69087;SDS011;56190;43.562;5.036;2022-08-05T10:32:02;4.93;;;3.55;;
69087;SDS011;56190;43.562;5.036;2022-08-05T10:34:28;6.00;;;3.80;;
69087;SDS011;56190;43.562;5.036;2022-08-05T10:36:53;4.25;;;3.25;;
69087;SDS011;56190;43.562;5.036;2022-08-05T10:39:20;8.80;;;3.85;;
69087;SDS011;56190;43.562;5.036;2022-08-05T10:44:17;5.05;;;3.72;;
69087;SDS011;56190;43.562;5.036;2022-08-05T10:49:08;5.50;;;3.60;;
69087;SDS011;56190;43.562;5.036;2022-08-05T10:51:44;4.97;;;3.50;;
69087;SDS011;56190;43.562;5.036;2022-08-05T10:54:09;5.00;;;3.28;;
69087;SDS011;56190;43.562;5.036;2022-08-05T10:56:51;4.63;;;3.10;;
69087;SDS011;56190;43.562;5.036;2022-08-05T10:59:27;3.45;;;3.15;;
69087;SDS011;56190;43.562;5.036;2022-08-05T11:04:53;6.65;;;3.28;;
69087;SDS011;56190;43.562;5.036;2022-08-05T11:07:18;4.32;;;3.20;;
69087;SDS011;56190;43.562;5.036;2022-08-05T11:14:47;3.80;;;3.17;;
69087;SDS011;56190;43.562;5.036;2022-08-05T11:17:29;3.53;;;3.20;;
69087;SDS011;56190;43.562;5.036;2022-08-05T11:19:56;5.55;;;2.90;;
69087;SDS011;56190;43.562;5.036;2022-08-05T11:27:50;3.85;;;3.08;;
69087;SDS011;56190;43.562;5.036;2022-08-05T11:30:16;4.85;;;3.20;;
69087;SDS011;56190;43.562;5.036;2022-08-05T11:32:41;7.45;;;3.50;;
69087;SDS011;56190;43.562;5.036;2022-08-05T11:35:06;8.00;;;3.50;;
69087;SDS011;56190;43.562;5.036;2022-08-05T11:40:00;4.32;;;3.13;;
69087;SDS011;56190;43.562;5.036;2022-08-05T11:42:25;4.05;;;3.05;;
69087;SDS011;56190;43.562;5.036;2022-08-05T11:44:51;3.25;;;2.83;;
69087;SDS011;56190;43.562;5.036;2022-08-05T11:47:20;4.40;;;3.10;;
69087;SDS011;56190;43.562;5.036;2022-08-05T11:49:46;4.93;;;2.50;;
69087;SDS011;56190;43.562;5.036;2022-08-05T11:52:11;7.03;;;2.63;;
69087;SDS011;56190;43.562;5.036;2022-08-05T11:54:36;4.20;;;2.70;;
69087;SDS011;56190;43.562;5.036;2022-08-05T11:57:04;3.60;;;2.60;;
69087;SDS011;56190;43.562;5.036;2022-08-05T11:59:29;5.25;;;2.90;;
69087;SDS011;56190;43.562;5.036;2022-08-05T12:02:04;2.90;;;2.70;;
69087;SDS011;56190;43.562;5.036;2022-08-05T12:04:46;7.18;;;3.65;;
69087;SDS011;56190;43.562;5.036;2022-08-05T12:07:13;4.88;;;3.38;;
69087;SDS011;56190;43.562;5.036;2022-08-05T12:09:39;9.20;;;3.40;;
69087;SDS011;56190;43.562;5.036;2022-08-05T12:12:05;6.15;;;3.83;;
69087;SDS011;56190;43.562;5.036;2022-08-05T12:14:38;5.60;;;3.60;;
69087;SDS011;56190;43.562;5.036;2022-08-05T12:17:10;4.38;;;3.63;;
69087;SDS011;56190;43.562;5.036;2022-08-05T12:19:43;5.70;;;3.60;;
69087;SDS011;56190;43.562;5.036;2022-08-05T12:22:09;4.40;;;4.00;;
69087;SDS011;56190;43.562;5.036;2022-08-05T12:24:39;4.55;;;3.78;;
69087;SDS011;56190;43.562;5.036;2022-08-05T12:27:06;5.35;;;3.72;;
69087;SDS011;56190;43.562;5.036;2022-08-05T12:29:31;4.00;;;3.55;;
69087;SDS011;56190;43.562;5.036;2022-08-05T12:31:57;5.40;;;4.15;;
69087;SDS011;56190;43.562;5.036;2022-08-05T12:34:30;5.78;;;3.92;;
69087;SDS011;56190;43.562;5.036;2022-08-05T12:36:56;5.18;;;4.00;;
69087;SDS011;56190;43.562;5.036;2022-08-05T12:39:22;5.45;;;3.88;;
69087;SDS011;56190;43.562;5.036;2022-08-05T12:41:48;6.05;;;3.70;;
69087;SDS011;56190;43.562;5.036;2022-08-05T12:44:14;6.18;;;4.10;;
69087;SDS011;56190;43.562;5.036;2022-08-05T12:46:40;4.25;;;3.85;;
69087;SDS011;56190;43.562;5.036;2022-08-05T12:51:30;6.45;;;4.30;;
69087;SDS011;56190;43.562;5.036;2022-08-05T12:54:05;6.38;;;3.72;;
69087;SDS011;56190;43.562;5.036;2022-08-05T12:56:30;7.05;;;3.65;;
69087;SDS011;56190;43.562;5.036;2022-08-05T12:59:11;8.73;;;4.22;;
69087;SDS011;56190;43.562;5.036;2022-08-05T13:01:41;4.78;;;3.95;;
69087;SDS011;56190;43.562;5.036;2022-08-05T13:04:06;5.93;;;3.95;;
69087;SDS011;56190;43.562;5.036;2022-08-05T13:06:32;5.57;;;3.90;;
69087;SDS011;56190;43.562;5.036;2022-08-05T13:08:57;4.78;;;3.90;;
69087;SDS011;56190;43.562;5.036;2022-08-05T13:11:29;5.80;;;3.42;;
69087;SDS011;56190;43.562;5.036;2022-08-05T13:13:56;6.50;;;4.13;;
69087;SDS011;56190;43.562;5.036;2022-08-05T13:16:21;7.47;;;3.65;;
69087;SDS011;56190;43.562;5.036;2022-08-05T13:18:53;4.95;;;4.25;;
69087;SDS011;56190;43.562;5.036;2022-08-05T13:21:19;5.60;;;4.10;;
69087;SDS011;56190;43.562;5.036;2022-08-05T13:23:44;5.07;;;4.03;;
69087;SDS011;56190;43.562;5.036;2022-08-05T13:26:09;6.43;;;4.18;;
69087;SDS011;56190;43.562;5.036;2022-08-05T13:28:35;6.35;;;3.83;;
69087;SDS011;56190;43.562;5.036;2022-08-05T13:31:00;4.82;;;3.90;;
69087;SDS011;56190;43.562;5.036;2022-08-05T13:33:25;7.10;;;4.38;;
69087;SDS011;56190;43.562;5.036;2022-08-05T13:35:50;6.63;;;3.90;;
69087;SDS011;56190;43.562;5.036;2022-08-05T13:38:16;6.30;;;4.20;;
69087;SDS011;56190;43.562;5.036;2022-08-05T13:40:41;6.82;;;3.95;;
69087;SDS011;56190;43.562;5.036;2022-08-05T13:43:07;6.75;;;3.90;;
69087;SDS011;56190;43.562;5.036;2022-08-05T13:45:32;8.75;;;4.18;;
69087;SDS011;56190;43.562;5.036;2022-08-05T13:47:57;5.68;;;4.07;;
69087;SDS011;56190;43.562;5.036;2022-08-05T13:50:22;5.80;;;3.78;;
69087;SDS011;56190;43.562;5.036;2022-08-05T13:52:48;4.22;;;3.72;;
69087;SDS011;56190;43.562;5.036;2022-08-05T13:55:13;5.65;;;3.78;;
69087;SDS011;56190;43.562;5.036;2022-08-05T13:57:38;7.53;;;4.07;;
69087;SDS011;56190;43.562;5.036;2022-08-05T14:00:03;5.03;;;3.80;;
69087;SDS011;56190;43.562;5.036;2022-08-05T14:02:29;11.98;;;4.30;;
69087;SDS011;56190;43.562;5.036;2022-08-05T14:04:54;7.07;;;4.03;;
69087;SDS011;56190;43.562;5.036;2022-08-05T14:07:38;5.60;;;4.18;;
69087;SDS011;56190;43.562;5.036;2022-08-05T14:10:17;6.88;;;3.92;;
69087;SDS011;56190;43.562;5.036;2022-08-05T14:12:43;6.53;;;3.92;;
69087;SDS011;56190;43.562;5.036;2022-08-05T14:15:08;7.05;;;4.00;;
69087;SDS011;56190;43.562;5.036;2022-08-05T14:17:34;6.65;;;4.07;;
69087;SDS011;56190;43.562;5.036;2022-08-05T14:19:59;5.85;;;3.88;;
69087;SDS011;56190;43.562;5.036;2022-08-05T14:22:24;6.03;;;3.95;;
69087;SDS011;56190;43.562;5.036;2022-08-05T14:24:50;5.75;;;3.88;;
69087;SDS011;56190;43.562;5.036;2022-08-05T14:27:15;6.45;;;4.72;;
69087;SDS011;56190;43.562;5.036;2022-08-05T14:29:40;4.50;;;3.92;;
69087;SDS011;56190;43.562;5.036;2022-08-05T14:32:06;5.68;;;3.80;;
69087;SDS011;56190;43.562;5.036;2022-08-05T14:34:31;6.00;;;3.95;;
69087;SDS011;56190;43.562;5.036;2022-08-05T14:36:57;4.03;;;3.63;;
69087;SDS011;56190;43.562;5.036;2022-08-05T14:39:22;5.20;;;3.40;;
69087;SDS011;56190;43.562;5.036;2022-08-05T14:41:47;4.82;;;3.40;;
69087;SDS011;56190;43.562;5.036;2022-08-05T14:44:12;5.88;;;3.95;;
69087;SDS011;56190;43.562;5.036;2022-08-05T14:46:38;6.10;;;3.97;;
69087;SDS011;56190;43.562;5.036;2022-08-05T14:49:04;6.47;;;3.50;;
69087;SDS011;56190;43.562;5.036;2022-08-05T14:51:29;6.13;;;3.95;;
69087;SDS011;56190;43.562;5.036;2022-08-05T14:53:54;6.18;;;3.53;;
69087;SDS011;56190;43.562;5.036;2022-08-05T14:56:20;6.35;;;3.85;;
69087;SDS011;56190;43.562;5.036;2022-08-05T14:58:45;6.22;;;3.47;;
69087;SDS011;56190;43.562;5.036;2022-08-05T15:01:10;6.32;;;3.42;;
69087;SDS011;56190;43.562;5.036;2022-08-05T15:03:36;7.13;;;3.92;;
69087;SDS011;56190;43.562;5.036;2022-08-05T15:06:02;7.20;;;4.03;;
69087;SDS011;56190;43.562;5.036;2022-08-05T15:08:27;7.40;;;3.92;;
69087;SDS011;56190;43.562;5.036;2022-08-05T15:10:53;4.53;;;3.88;;
69087;SDS011;56190;43.562;5.036;2022-08-05T15:13:18;5.90;;;3.75;;
69087;SDS011;56190;43.562;5.036;2022-08-05T15:15:43;5.47;;;3.20;;